sensor_id;sensor_type;location;lat;lon;timestamp;P1;durP1;ratioP1;P2;durP2;ratioP2
20454;SDS011;10386;54.314;10.022;2023-01-01T00:02:23;12.37;;;5.63;;
20454;SDS011;10386;54.314;10.022;2023-01-01T00:04:50;22.53;;;6.53;;
20454;SDS011;10386;54.314;10.022;2023-01-01T00:07:17;20.23;;;6.17;;
20454;SDS011;10386;54.314;10.022;2023-01-01T00:09:43;19.07;;;6.77;;
20454;SDS011;10386;54.314;10.022;2023-01-01T00:12:30;16.40;;;7.17;;
20454;SDS011;10386;54.314;10.022;2023-01-01T00:14:57;14.10;;;5.80;;
20454;SDS011;10386;54.314;10.022;2023-01-01T00:17:24;12.17;;;5.60;;
20454;SDS011;10386;54.314;10.022;2023-01-01T00:19:51;11.27;;;5.33;;
20454;SDS011;10386;54.314;10.022;2023-01-01T00:22:18;12.70;;;5.37;;
20454;SDS011;10386;54.314;10.022;2023-01-01T00:25:05;13.77;;;5.37;;
20454;SDS011;10386;54.314;10.022;2023-01-01T00:27:32;15.77;;;5.43;;
20454;SDS011;10386;54.314;10.022;2023-01-01T00:29:58;12.40;;;4.83;;
20454;SDS011;10386;54.314;10.022;2023-01-01T00:32:25;18.20;;;5.83;;
20454;SDS011;10386;54.314;10.022;2023-01-01T00:34:52;18.07;;;5.57;;
20454;SDS011;10386;54.314;10.022;2023-01-01T00:37:19;11.47;;;5.23;;
20454;SDS011;10386;54.314;10.022;2023-01-01T00:39:46;13.50;;;5.07;;
20454;SDS011;10386;54.314;10.022;2023-01-01T00:42:12;15.03;;;6.07;;
20454;SDS011;10386;54.314;10.022;2023-01-01T00:44:39;14.50;;;5.50;;
20454;SDS011;10386;54.314;10.022;2023-01-01T00:47:06;20.07;;;6.03;;
20454;SDS011;10386;54.314;10.022;2023-01-01T00:49:33;16.33;;;5.87;;
20454;SDS011;10386;54.314;10.022;2023-01-01T00:51:59;18.60;;;6.50;;
20454;SDS011;10386;54.314;10.022;2023-01-01T00:54:27;16.97;;;6.67;;
20454;SDS011;10386;54.314;10.022;2023-01-01T00:56:54;12.90;;;5.83;;
20454;SDS011;10386;54.314;10.022;2023-01-01T00:59:22;14.37;;;6.47;;
20454;SDS011;10386;54.314;10.022;2023-01-01T01:01:54;17.23;;;6.87;;
20454;SDS011;10386;54.314;10.022;2023-01-01T01:04:21;16.40;;;7.03;;
20454;SDS011;10386;54.314;10.022;2023-01-01T01:06:48;20.27;;;6.70;;
20454;SDS011;10386;54.314;10.022;2023-01-01T01:09:15;16.37;;;7.70;;
20454;SDS011;10386;54.314;10.022;2023-01-01T01:11:42;17.10;;;7.93;;
20454;SDS011;10386;54.314;10.022;2023-01-01T01:14:09;20.33;;;7.23;;
20454;SDS011;10386;54.314;10.022;2023-01-01T01:16:36;19.53;;;7.67;;
20454;SDS011;10386;54.314;10.022;2023-01-01T01:19:03;15.27;;;7.00;;
20454;SDS011;10386;54.314;10.022;2023-01-01T01:21:32;19.47;;;7.57;;
20454;SDS011;10386;54.314;10.022;2023-01-01T01:24:02;22.43;;;7.43;;
20454;SDS011;10386;54.314;10.022;2023-01-01T01:26:30;17.07;;;7.47;;
20454;SDS011;10386;54.314;10.022;2023-01-01T01:28:58;17.60;;;7.93;;
20454;SDS011;10386;54.314;10.022;2023-01-01T01:31:27;19.43;;;7.40;;
20454;SDS011;10386;54.314;10.022;2023-01-01T01:33:55;21.42;;;7.05;;
20454;SDS011;10386;54.314;10.022;2023-01-01T01:36:23;18.53;;;7.47;;
20454;SDS011;10386;54.314;10.022;2023-01-01T01:38:51;20.00;;;7.00;;
20454;SDS011;10386;54.314;10.022;2023-01-01T01:41:19;17.97;;;7.10;;
20454;SDS011;10386;54.314;10.022;2023-01-01T01:43:59;17.77;;;6.37;;
20454;SDS011;10386;54.314;10.022;2023-01-01T01:49:02;23.60;;;7.20;;
20454;SDS011;10386;54.314;10.022;2023-01-01T01:51:35;17.30;;;6.70;;
20454;SDS011;10386;54.314;10.022;2023-01-01T01:54:07;13.67;;;6.47;;
20454;SDS011;10386;54.314;10.022;2023-01-01T01:56:41;15.40;;;6.47;;
20454;SDS011;10386;54.314;10.022;2023-01-01T01:59:15;22.93;;;6.30;;
20454;SDS011;10386;54.314;10.022;2023-01-01T02:01:44;18.27;;;6.40;;
20454;SDS011;10386;54.314;10.022;2023-01-01T02:04:11;23.50;;;7.17;;
20454;SDS011;10386;54.314;10.022;2023-01-01T02:06:38;18.13;;;6.53;;
20454;SDS011;10386;54.314;10.022;2023-01-01T02:09:06;13.33;;;6.43;;
20454;SDS011;10386;54.314;10.022;2023-01-01T02:11:34;16.63;;;6.40;;
20454;SDS011;10386;54.314;10.022;2023-01-01T02:14:00;19.27;;;6.90;;
20454;SDS011;10386;54.314;10.022;2023-01-01T02:16:32;20.60;;;5.67;;
20454;SDS011;10386;54.314;10.022;2023-01-01T02:19:14;17.30;;;7.10;;
20454;SDS011;10386;54.314;10.022;2023-01-01T02:21:55;15.23;;;6.60;;
20454;SDS011;10386;54.314;10.022;2023-01-01T02:27:14;19.57;;;6.97;;
20454;SDS011;10386;54.314;10.022;2023-01-01T02:30:07;21.57;;;7.30;;
20454;SDS011;10386;54.314;10.022;2023-01-01T02:35:19;19.60;;;7.30;;
20454;SDS011;10386;54.314;10.022;2023-01-01T02:38:20;20.00;;;7.13;;
20454;SDS011;10386;54.314;10.022;2023-01-01T02:40:53;19.20;;;7.27;;
20454;SDS011;10386;54.314;10.022;2023-01-01T02:43:24;15.20;;;7.07;;
20454;SDS011;10386;54.314;10.022;2023-01-01T02:45:52;17.77;;;7.20;;
20454;SDS011;10386;54.314;10.022;2023-01-01T02:48:39;23.40;;;8.03;;
20454;SDS011;10386;54.314;10.022;2023-01-01T03:08:05;21.70;;;9.73;;
20454;SDS011;10386;54.314;10.022;2023-01-01T03:10:41;23.30;;;9.03;;
20454;SDS011;10386;54.314;10.022;2023-01-01T03:16:15;19.80;;;8.93;;
20454;SDS011;10386;54.314;10.022;2023-01-01T03:24:21;21.43;;;9.03;;
20454;SDS011;10386;54.314;10.022;2023-01-01T03:26:57;25.80;;;10.40;;
20454;SDS011;10386;54.314;10.022;2023-01-01T03:29:30;23.60;;;10.03;;
20454;SDS011;10386;54.314;10.022;2023-01-01T03:32:01;24.77;;;11.03;;
20454;SDS011;10386;54.314;10.022;2023-01-01T03:34:32;29.50;;;11.43;;
20454;SDS011;10386;54.314;10.022;2023-01-01T03:37:06;23.83;;;11.17;;
20454;SDS011;10386;54.314;10.022;2023-01-01T03:39:40;28.10;;;11.87;;
20454;SDS011;10386;54.314;10.022;2023-01-01T03:42:18;29.13;;;11.80;;
20454;SDS011;10386;54.314;10.022;2023-01-01T03:44:57;24.33;;;11.60;;
20454;SDS011;10386;54.314;10.022;2023-01-01T03:47:29;27.53;;;12.80;;
20454;SDS011;10386;54.314;10.022;2023-01-01T03:49:56;30.23;;;14.33;;
20454;SDS011;10386;54.314;10.022;2023-01-01T03:52:28;29.10;;;14.77;;
20454;SDS011;10386;54.314;10.022;2023-01-01T03:55:07;31.07;;;14.70;;
20454;SDS011;10386;54.314;10.022;2023-01-01T04:00:23;40.50;;;15.73;;
20454;SDS011;10386;54.314;10.022;2023-01-01T04:02:54;34.83;;;16.10;;
20454;SDS011;10386;54.314;10.022;2023-01-01T04:05:24;36.83;;;17.57;;
20454;SDS011;10386;54.314;10.022;2023-01-01T04:07:53;37.27;;;17.80;;
20454;SDS011;10386;54.314;10.022;2023-01-01T04:10:21;45.20;;;19.40;;
20454;SDS011;10386;54.314;10.022;2023-01-01T04:12:50;45.03;;;18.83;;
20454;SDS011;10386;54.314;10.022;2023-01-01T04:15:22;37.07;;;19.00;;
20454;SDS011;10386;54.314;10.022;2023-01-01T04:17:51;42.23;;;18.87;;
20454;SDS011;10386;54.314;10.022;2023-01-01T04:20:19;46.57;;;20.37;;
20454;SDS011;10386;54.314;10.022;2023-01-01T04:22:46;44.90;;;20.03;;
20454;SDS011;10386;54.314;10.022;2023-01-01T04:25:13;47.10;;;20.40;;
20454;SDS011;10386;54.314;10.022;2023-01-01T04:27:43;44.80;;;20.03;;
20454;SDS011;10386;54.314;10.022;2023-01-01T04:30:10;39.77;;;19.30;;
20454;SDS011;10386;54.314;10.022;2023-01-01T04:32:38;39.87;;;20.70;;
20454;SDS011;10386;54.314;10.022;2023-01-01T04:35:06;38.67;;;19.83;;
20454;SDS011;10386;54.314;10.022;2023-01-01T04:37:34;41.30;;;20.87;;
20454;SDS011;10386;54.314;10.022;2023-01-01T04:40:02;47.97;;;21.17;;
20454;SDS011;10386;54.314;10.022;2023-01-01T04:42:29;43.60;;;21.77;;
20454;SDS011;10386;54.314;10.022;2023-01-01T04:44:56;48.17;;;20.97;;
20454;SDS011;10386;54.314;10.022;2023-01-01T04:47:23;43.57;;;20.53;;
20454;SDS011;10386;54.314;10.022;2023-01-01T04:49:52;43.53;;;20.27;;
20454;SDS011;10386;54.314;10.022;2023-01-01T04:52:22;49.10;;;20.97;;
20454;SDS011;10386;54.314;10.022;2023-01-01T04:54:49;41.77;;;19.80;;
20454;SDS011;10386;54.314;10.022;2023-01-01T04:57:15;33.27;;;18.07;;
20454;SDS011;10386;54.314;10.022;2023-01-01T04:59:42;40.17;;;17.90;;
20454;SDS011;10386;54.314;10.022;2023-01-01T05:02:09;40.33;;;18.67;;
20454;SDS011;10386;54.314;10.022;2023-01-01T05:04:38;36.10;;;17.73;;
20454;SDS011;10386;54.314;10.022;2023-01-01T05:07:05;33.57;;;17.80;;
20454;SDS011;10386;54.314;10.022;2023-01-01T05:09:31;35.27;;;17.40;;
20454;SDS011;10386;54.314;10.022;2023-01-01T05:11:58;37.47;;;17.63;;
20454;SDS011;10386;54.314;10.022;2023-01-01T05:14:25;39.93;;;17.97;;
20454;SDS011;10386;54.314;10.022;2023-01-01T05:16:51;41.57;;;19.13;;
20454;SDS011;10386;54.314;10.022;2023-01-01T05:19:18;39.57;;;18.37;;
20454;SDS011;10386;54.314;10.022;2023-01-01T05:21:45;44.23;;;20.00;;
20454;SDS011;10386;54.314;10.022;2023-01-01T05:24:12;42.47;;;20.10;;
20454;SDS011;10386;54.314;10.022;2023-01-01T05:26:40;44.03;;;19.93;;
20454;SDS011;10386;54.314;10.022;2023-01-01T05:29:08;45.97;;;21.40;;
20454;SDS011;10386;54.314;10.022;2023-01-01T05:31:42;39.13;;;20.30;;
20454;SDS011;10386;54.314;10.022;2023-01-01T05:34:08;42.10;;;20.73;;
20454;SDS011;10386;54.314;10.022;2023-01-01T05:36:36;38.50;;;19.67;;
20454;SDS011;10386;54.314;10.022;2023-01-01T05:39:08;41.17;;;20.63;;
20454;SDS011;10386;54.314;10.022;2023-01-01T05:41:37;40.87;;;19.57;;
20454;SDS011;10386;54.314;10.022;2023-01-01T05:44:05;39.83;;;19.23;;
20454;SDS011;10386;54.314;10.022;2023-01-01T05:46:37;44.70;;;18.23;;
20454;SDS011;10386;54.314;10.022;2023-01-01T05:49:04;33.97;;;17.23;;
20454;SDS011;10386;54.314;10.022;2023-01-01T05:51:31;40.77;;;17.33;;
20454;SDS011;10386;54.314;10.022;2023-01-01T05:53:59;34.87;;;16.47;;
20454;SDS011;10386;54.314;10.022;2023-01-01T05:56:26;33.87;;;16.13;;
20454;SDS011;10386;54.314;10.022;2023-01-01T05:58:55;35.13;;;15.33;;
20454;SDS011;10386;54.314;10.022;2023-01-01T06:01:23;32.50;;;15.67;;
20454;SDS011;10386;54.314;10.022;2023-01-01T06:03:52;36.13;;;15.07;;
20454;SDS011;10386;54.314;10.022;2023-01-01T06:06:21;35.30;;;15.07;;
20454;SDS011;10386;54.314;10.022;2023-01-01T06:08:54;33.70;;;15.40;;
20454;SDS011;10386;54.314;10.022;2023-01-01T06:11:23;34.83;;;15.43;;
20454;SDS011;10386;54.314;10.022;2023-01-01T06:13:53;29.67;;;14.33;;
20454;SDS011;10386;54.314;10.022;2023-01-01T06:16:21;33.23;;;14.70;;
20454;SDS011;10386;54.314;10.022;2023-01-01T06:18:48;27.83;;;13.47;;
20454;SDS011;10386;54.314;10.022;2023-01-01T06:21:17;28.20;;;13.47;;
20454;SDS011;10386;54.314;10.022;2023-01-01T06:23:45;25.23;;;13.17;;
20454;SDS011;10386;54.314;10.022;2023-01-01T06:26:22;29.87;;;13.17;;
20454;SDS011;10386;54.314;10.022;2023-01-01T06:28:50;28.03;;;11.27;;
20454;SDS011;10386;54.314;10.022;2023-01-01T06:31:18;24.77;;;11.07;;
20454;SDS011;10386;54.314;10.022;2023-01-01T06:33:46;21.07;;;11.70;;
20454;SDS011;10386;54.314;10.022;2023-01-01T06:36:15;19.70;;;9.90;;
20454;SDS011;10386;54.314;10.022;2023-01-01T06:38:45;21.23;;;9.33;;
20454;SDS011;10386;54.314;10.022;2023-01-01T06:41:14;18.33;;;9.17;;
20454;SDS011;10386;54.314;10.022;2023-01-01T06:43:42;21.03;;;8.57;;
20454;SDS011;10386;54.314;10.022;2023-01-01T06:48:51;16.73;;;7.67;;
20454;SDS011;10386;54.314;10.022;2023-01-01T06:51:30;15.07;;;7.53;;
20454;SDS011;10386;54.314;10.022;2023-01-01T06:54:00;13.50;;;7.03;;
20454;SDS011;10386;54.314;10.022;2023-01-01T06:56:28;19.03;;;7.07;;
20454;SDS011;10386;54.314;10.022;2023-01-01T06:58:56;13.10;;;6.97;;
20454;SDS011;10386;54.314;10.022;2023-01-01T07:01:25;19.17;;;6.63;;
20454;SDS011;10386;54.314;10.022;2023-01-01T07:03:54;11.03;;;5.83;;
20454;SDS011;10386;54.314;10.022;2023-01-01T07:06:22;10.45;;;5.97;;
20454;SDS011;10386;54.314;10.022;2023-01-01T07:08:51;11.73;;;5.97;;
20454;SDS011;10386;54.314;10.022;2023-01-01T07:11:18;11.43;;;5.43;;
20454;SDS011;10386;54.314;10.022;2023-01-01T07:13:45;11.17;;;5.10;;
20454;SDS011;10386;54.314;10.022;2023-01-01T07:16:12;11.70;;;5.27;;
20454;SDS011;10386;54.314;10.022;2023-01-01T07:18:39;10.03;;;5.40;;
20454;SDS011;10386;54.314;10.022;2023-01-01T07:21:20;12.47;;;5.63;;
20454;SDS011;10386;54.314;10.022;2023-01-01T07:23:55;16.20;;;5.33;;
20454;SDS011;10386;54.314;10.022;2023-01-01T07:26:27;11.70;;;5.67;;
20454;SDS011;10386;54.314;10.022;2023-01-01T07:28:55;12.43;;;5.00;;
20454;SDS011;10386;54.314;10.022;2023-01-01T07:31:31;14.70;;;5.77;;
20454;SDS011;10386;54.314;10.022;2023-01-01T07:33:58;8.10;;;4.90;;
20454;SDS011;10386;54.314;10.022;2023-01-01T07:36:25;11.40;;;5.67;;
20454;SDS011;10386;54.314;10.022;2023-01-01T07:38:52;9.43;;;5.50;;
20454;SDS011;10386;54.314;10.022;2023-01-01T07:41:19;12.87;;;6.17;;
20454;SDS011;10386;54.314;10.022;2023-01-01T07:43:46;14.27;;;5.73;;
20454;SDS011;10386;54.314;10.022;2023-01-01T07:46:13;12.27;;;5.43;;
20454;SDS011;10386;54.314;10.022;2023-01-01T07:48:47;13.73;;;5.67;;
20454;SDS011;10386;54.314;10.022;2023-01-01T07:51:14;10.40;;;5.03;;
20454;SDS011;10386;54.314;10.022;2023-01-01T07:53:41;11.73;;;5.83;;
20454;SDS011;10386;54.314;10.022;2023-01-01T07:56:07;15.50;;;5.97;;
20454;SDS011;10386;54.314;10.022;2023-01-01T07:58:37;13.80;;;5.40;;
20454;SDS011;10386;54.314;10.022;2023-01-01T08:01:05;13.07;;;5.53;;
20454;SDS011;10386;54.314;10.022;2023-01-01T08:03:34;11.87;;;4.77;;
20454;SDS011;10386;54.314;10.022;2023-01-01T08:06:06;13.13;;;5.20;;
20454;SDS011;10386;54.314;10.022;2023-01-01T08:08:37;14.97;;;5.10;;
20454;SDS011;10386;54.314;10.022;2023-01-01T08:11:04;13.20;;;4.97;;
20454;SDS011;10386;54.314;10.022;2023-01-01T08:13:31;11.77;;;5.33;;
20454;SDS011;10386;54.314;10.022;2023-01-01T08:15:58;8.93;;;3.93;;
20454;SDS011;10386;54.314;10.022;2023-01-01T08:18:25;15.13;;;5.30;;
20454;SDS011;10386;54.314;10.022;2023-01-01T08:20:51;10.43;;;4.57;;
20454;SDS011;10386;54.314;10.022;2023-01-01T08:23:19;8.00;;;4.77;;
20454;SDS011;10386;54.314;10.022;2023-01-01T08:25:46;11.40;;;4.70;;
20454;SDS011;10386;54.314;10.022;2023-01-01T08:28:13;12.20;;;4.30;;
20454;SDS011;10386;54.314;10.022;2023-01-01T08:30:40;10.27;;;4.83;;
20454;SDS011;10386;54.314;10.022;2023-01-01T08:33:07;13.93;;;5.77;;
20454;SDS011;10386;54.314;10.022;2023-01-01T08:35:34;13.57;;;4.60;;
20454;SDS011;10386;54.314;10.022;2023-01-01T08:38:05;9.47;;;4.43;;
20454;SDS011;10386;54.314;10.022;2023-01-01T08:40:32;16.23;;;4.50;;
20454;SDS011;10386;54.314;10.022;2023-01-01T08:43:02;19.70;;;5.37;;
20454;SDS011;10386;54.314;10.022;2023-01-01T08:45:29;12.43;;;5.43;;
20454;SDS011;10386;54.314;10.022;2023-01-01T08:47:56;12.53;;;4.57;;
20454;SDS011;10386;54.314;10.022;2023-01-01T08:50:22;14.43;;;4.33;;
20454;SDS011;10386;54.314;10.022;2023-01-01T08:52:49;18.53;;;4.90;;
20454;SDS011;10386;54.314;10.022;2023-01-01T08:55:16;9.50;;;4.50;;
20454;SDS011;10386;54.314;10.022;2023-01-01T08:57:43;9.23;;;4.30;;
20454;SDS011;10386;54.314;10.022;2023-01-01T09:00:10;15.60;;;5.23;;
20454;SDS011;10386;54.314;10.022;2023-01-01T09:02:38;11.13;;;4.43;;
20454;SDS011;10386;54.314;10.022;2023-01-01T09:05:05;19.40;;;5.67;;
20454;SDS011;10386;54.314;10.022;2023-01-01T09:07:33;21.27;;;4.50;;
20454;SDS011;10386;54.314;10.022;2023-01-01T09:09:59;10.10;;;3.83;;
20454;SDS011;10386;54.314;10.022;2023-01-01T09:12:26;7.40;;;4.13;;
20454;SDS011;10386;54.314;10.022;2023-01-01T09:14:53;12.90;;;3.67;;
20454;SDS011;10386;54.314;10.022;2023-01-01T09:17:20;6.53;;;3.40;;
20454;SDS011;10386;54.314;10.022;2023-01-01T09:19:47;7.53;;;3.30;;
20454;SDS011;10386;54.314;10.022;2023-01-01T09:22:13;13.50;;;3.40;;
20454;SDS011;10386;54.314;10.022;2023-01-01T09:24:40;9.43;;;3.30;;
20454;SDS011;10386;54.314;10.022;2023-01-01T09:27:07;8.53;;;3.13;;
20454;SDS011;10386;54.314;10.022;2023-01-01T09:29:34;7.30;;;3.13;;
20454;SDS011;10386;54.314;10.022;2023-01-01T09:32:01;9.30;;;3.00;;
20454;SDS011;10386;54.314;10.022;2023-01-01T09:34:27;8.77;;;3.37;;
20454;SDS011;10386;54.314;10.022;2023-01-01T09:36:54;11.23;;;2.87;;
20454;SDS011;10386;54.314;10.022;2023-01-01T09:39:21;8.80;;;2.80;;
20454;SDS011;10386;54.314;10.022;2023-01-01T09:44:48;5.70;;;2.53;;
20454;SDS011;10386;54.314;10.022;2023-01-01T09:47:34;13.67;;;2.47;;
20454;SDS011;10386;54.314;10.022;2023-01-01T09:50:09;10.37;;;2.83;;
20454;SDS011;10386;54.314;10.022;2023-01-01T09:52:59;8.17;;;2.60;;
20454;SDS011;10386;54.314;10.022;2023-01-01T09:55:33;10.27;;;3.03;;
20454;SDS011;10386;54.314;10.022;2023-01-01T09:58:03;13.67;;;2.83;;
20454;SDS011;10386;54.314;10.022;2023-01-01T10:00:29;8.90;;;2.77;;
20454;SDS011;10386;54.314;10.022;2023-01-01T10:03:09;9.77;;;2.67;;
20454;SDS011;10386;54.314;10.022;2023-01-01T10:05:52;11.17;;;2.97;;
20454;SDS011;10386;54.314;10.022;2023-01-01T10:14:23;9.40;;;2.33;;
20454;SDS011;10386;54.314;10.022;2023-01-01T10:16:54;13.87;;;2.67;;
20454;SDS011;10386;54.314;10.022;2023-01-01T10:19:31;10.77;;;2.20;;
20454;SDS011;10386;54.314;10.022;2023-01-01T10:22:06;13.43;;;2.50;;
20454;SDS011;10386;54.314;10.022;2023-01-01T10:27:21;11.70;;;3.17;;
20454;SDS011;10386;54.314;10.022;2023-01-01T10:29:49;13.90;;;2.90;;
20454;SDS011;10386;54.314;10.022;2023-01-01T10:32:27;14.43;;;2.90;;
20454;SDS011;10386;54.314;10.022;2023-01-01T10:34:56;14.47;;;2.60;;
20454;SDS011;10386;54.314;10.022;2023-01-01T10:37:23;14.53;;;3.10;;
20454;SDS011;10386;54.314;10.022;2023-01-01T10:39:53;11.73;;;2.53;;
20454;SDS011;10386;54.314;10.022;2023-01-01T10:42:20;15.67;;;2.93;;
20454;SDS011;10386;54.314;10.022;2023-01-01T10:44:47;12.60;;;3.47;;
20454;SDS011;10386;54.314;10.022;2023-01-01T10:47:25;12.53;;;3.20;;
20454;SDS011;10386;54.314;10.022;2023-01-01T10:50:04;14.97;;;3.03;;
20454;SDS011;10386;54.314;10.022;2023-01-01T10:52:38;13.17;;;3.07;;
20454;SDS011;10386;54.314;10.022;2023-01-01T10:55:19;15.00;;;2.83;;
20454;SDS011;10386;54.314;10.022;2023-01-01T10:57:49;12.80;;;2.60;;
20454;SDS011;10386;54.314;10.022;2023-01-01T11:00:22;12.73;;;2.97;;
20454;SDS011;10386;54.314;10.022;2023-01-01T11:06:08;23.17;;;3.30;;
20454;SDS011;10386;54.314;10.022;2023-01-01T11:08:45;10.80;;;3.10;;
20454;SDS011;10386;54.314;10.022;2023-01-01T11:11:21;12.00;;;3.10;;
20454;SDS011;10386;54.314;10.022;2023-01-01T11:13:53;13.13;;;2.83;;
20454;SDS011;10386;54.314;10.022;2023-01-01T11:16:23;15.03;;;3.33;;
20454;SDS011;10386;54.314;10.022;2023-01-01T11:18:57;15.03;;;3.07;;
20454;SDS011;10386;54.314;10.022;2023-01-01T11:21:27;12.07;;;2.60;;
20454;SDS011;10386;54.314;10.022;2023-01-01T11:24:16;18.27;;;3.40;;
20454;SDS011;10386;54.314;10.022;2023-01-01T11:26:45;10.87;;;3.20;;
20454;SDS011;10386;54.314;10.022;2023-01-01T11:29:26;15.23;;;3.10;;
20454;SDS011;10386;54.314;10.022;2023-01-01T11:31:54;14.07;;;2.67;;
20454;SDS011;10386;54.314;10.022;2023-01-01T11:36:50;15.93;;;2.97;;
20454;SDS011;10386;54.314;10.022;2023-01-01T11:39:19;18.93;;;2.93;;
20454;SDS011;10386;54.314;10.022;2023-01-01T11:41:53;11.43;;;2.73;;
20454;SDS011;10386;54.314;10.022;2023-01-01T11:44:40;16.60;;;2.80;;
20454;SDS011;10386;54.314;10.022;2023-01-01T11:49:53;16.07;;;3.23;;
20454;SDS011;10386;54.314;10.022;2023-01-01T11:52:26;11.00;;;2.70;;
20454;SDS011;10386;54.314;10.022;2023-01-01T12:00:30;16.70;;;2.90;;
20454;SDS011;10386;54.314;10.022;2023-01-01T12:03:03;23.80;;;3.37;;
20454;SDS011;10386;54.314;10.022;2023-01-01T12:05:48;14.60;;;3.27;;
20454;SDS011;10386;54.314;10.022;2023-01-01T12:08:22;13.33;;;3.77;;
20454;SDS011;10386;54.314;10.022;2023-01-01T12:19:41;17.37;;;3.10;;
20454;SDS011;10386;54.314;10.022;2023-01-01T12:22:18;17.53;;;3.73;;
20454;SDS011;10386;54.314;10.022;2023-01-01T12:24:45;14.27;;;2.83;;
20454;SDS011;10386;54.314;10.022;2023-01-01T12:43:34;16.47;;;2.93;;
20454;SDS011;10386;54.314;10.022;2023-01-01T12:52:18;17.03;;;3.07;;
20454;SDS011;10386;54.314;10.022;2023-01-01T12:58:07;17.37;;;3.40;;
20454;SDS011;10386;54.314;10.022;2023-01-01T13:00:38;14.27;;;3.13;;
20454;SDS011;10386;54.314;10.022;2023-01-01T13:03:18;17.87;;;3.27;;
20454;SDS011;10386;54.314;10.022;2023-01-01T13:05:49;16.40;;;2.93;;
20454;SDS011;10386;54.314;10.022;2023-01-01T13:08:19;21.73;;;3.47;;
20454;SDS011;10386;54.314;10.022;2023-01-01T13:10:46;15.67;;;3.00;;
20454;SDS011;10386;54.314;10.022;2023-01-01T13:13:18;21.10;;;3.03;;
20454;SDS011;10386;54.314;10.022;2023-01-01T13:15:47;20.23;;;3.73;;
20454;SDS011;10386;54.314;10.022;2023-01-01T13:20:45;17.90;;;3.67;;
20454;SDS011;10386;54.314;10.022;2023-01-01T13:45:41;13.73;;;3.50;;
20454;SDS011;10386;54.314;10.022;2023-01-01T14:02:55;11.90;;;2.60;;
20454;SDS011;10386;54.314;10.022;2023-01-01T14:07:58;22.10;;;3.23;;
20454;SDS011;10386;54.314;10.022;2023-01-01T14:13:01;12.90;;;3.13;;
20454;SDS011;10386;54.314;10.022;2023-01-01T14:15:49;21.33;;;3.50;;
20454;SDS011;10386;54.314;10.022;2023-01-01T14:18:19;17.90;;;3.03;;
20454;SDS011;10386;54.314;10.022;2023-01-01T14:20:57;14.67;;;3.47;;
20454;SDS011;10386;54.314;10.022;2023-01-01T14:23:34;14.53;;;2.97;;
20454;SDS011;10386;54.314;10.022;2023-01-01T14:26:08;14.83;;;3.13;;
20454;SDS011;10386;54.314;10.022;2023-01-01T14:28:37;14.63;;;2.80;;
20454;SDS011;10386;54.314;10.022;2023-01-01T14:31:15;12.87;;;2.80;;
20454;SDS011;10386;54.314;10.022;2023-01-01T14:33:45;14.60;;;3.63;;
20454;SDS011;10386;54.314;10.022;2023-01-01T14:36:22;14.02;;;2.90;;
20454;SDS011;10386;54.314;10.022;2023-01-01T14:38:51;14.57;;;3.23;;
20454;SDS011;10386;54.314;10.022;2023-01-01T14:41:36;14.23;;;2.63;;
20454;SDS011;10386;54.314;10.022;2023-01-01T14:44:09;10.93;;;2.83;;
20454;SDS011;10386;54.314;10.022;2023-01-01T14:46:43;14.27;;;2.80;;
20454;SDS011;10386;54.314;10.022;2023-01-01T14:49:16;14.17;;;2.70;;
20454;SDS011;10386;54.314;10.022;2023-01-01T14:51:52;15.27;;;3.03;;
20454;SDS011;10386;54.314;10.022;2023-01-01T14:54:28;15.93;;;3.23;;
20454;SDS011;10386;54.314;10.022;2023-01-01T14:57:02;13.20;;;3.30;;
20454;SDS011;10386;54.314;10.022;2023-01-01T14:59:36;16.17;;;3.30;;
20454;SDS011;10386;54.314;10.022;2023-01-01T15:02:13;16.07;;;3.00;;
20454;SDS011;10386;54.314;10.022;2023-01-01T15:04:40;14.67;;;2.73;;
20454;SDS011;10386;54.314;10.022;2023-01-01T15:07:21;14.43;;;2.83;;
20454;SDS011;10386;54.314;10.022;2023-01-01T15:09:57;14.53;;;2.90;;
20454;SDS011;10386;54.314;10.022;2023-01-01T15:12:26;15.97;;;2.90;;
20454;SDS011;10386;54.314;10.022;2023-01-01T15:14:53;11.10;;;2.80;;
20454;SDS011;10386;54.314;10.022;2023-01-01T15:17:23;13.37;;;2.77;;
20454;SDS011;10386;54.314;10.022;2023-01-01T15:22:49;13.30;;;2.67;;
20454;SDS011;10386;54.314;10.022;2023-01-01T15:25:17;5.83;;;2.37;;
20454;SDS011;10386;54.314;10.022;2023-01-01T15:27:51;11.53;;;2.90;;
20454;SDS011;10386;54.314;10.022;2023-01-01T15:30:24;17.07;;;3.77;;
20454;SDS011;10386;54.314;10.022;2023-01-01T15:32:53;17.37;;;3.27;;
20454;SDS011;10386;54.314;10.022;2023-01-01T15:35:28;14.47;;;2.83;;
20454;SDS011;10386;54.314;10.022;2023-01-01T15:37:58;21.33;;;3.53;;
20454;SDS011;10386;54.314;10.022;2023-01-01T15:40:29;13.23;;;2.90;;
20454;SDS011;10386;54.314;10.022;2023-01-01T15:45:35;17.87;;;3.10;;
20454;SDS011;10386;54.314;10.022;2023-01-01T15:50:42;23.17;;;3.83;;
20454;SDS011;10386;54.314;10.022;2023-01-01T15:53:25;15.97;;;2.93;;
20454;SDS011;10386;54.314;10.022;2023-01-01T15:56:01;18.23;;;3.23;;
20454;SDS011;10386;54.314;10.022;2023-01-01T15:58:34;12.50;;;3.33;;
20454;SDS011;10386;54.314;10.022;2023-01-01T16:01:07;20.03;;;3.47;;
20454;SDS011;10386;54.314;10.022;2023-01-01T16:03:37;13.10;;;3.00;;
20454;SDS011;10386;54.314;10.022;2023-01-01T16:06:05;13.17;;;3.27;;
20454;SDS011;10386;54.314;10.022;2023-01-01T16:08:32;13.80;;;3.20;;
20454;SDS011;10386;54.314;10.022;2023-01-01T16:10:59;10.20;;;3.77;;
20454;SDS011;10386;54.314;10.022;2023-01-01T16:13:26;15.67;;;3.53;;
20454;SDS011;10386;54.314;10.022;2023-01-01T16:15:57;10.40;;;3.20;;
20454;SDS011;10386;54.314;10.022;2023-01-01T16:18:34;7.67;;;2.60;;
20454;SDS011;10386;54.314;10.022;2023-01-01T16:21:03;21.10;;;3.90;;
20454;SDS011;10386;54.314;10.022;2023-01-01T16:23:30;15.47;;;2.70;;
20454;SDS011;10386;54.314;10.022;2023-01-01T16:25:57;12.57;;;3.17;;
20454;SDS011;10386;54.314;10.022;2023-01-01T16:28:24;17.80;;;3.43;;
20454;SDS011;10386;54.314;10.022;2023-01-01T16:30:50;15.23;;;3.30;;
20454;SDS011;10386;54.314;10.022;2023-01-01T16:33:18;15.30;;;2.70;;
20454;SDS011;10386;54.314;10.022;2023-01-01T16:35:48;20.53;;;3.20;;
20454;SDS011;10386;54.314;10.022;2023-01-01T16:38:14;14.43;;;3.07;;
20454;SDS011;10386;54.314;10.022;2023-01-01T16:40:41;13.03;;;3.07;;
20454;SDS011;10386;54.314;10.022;2023-01-01T16:43:14;16.27;;;3.17;;
20454;SDS011;10386;54.314;10.022;2023-01-01T16:45:42;14.30;;;3.27;;
20454;SDS011;10386;54.314;10.022;2023-01-01T16:48:09;12.97;;;3.07;;
20454;SDS011;10386;54.314;10.022;2023-01-01T16:50:36;17.93;;;2.80;;
20454;SDS011;10386;54.314;10.022;2023-01-01T16:53:03;14.67;;;3.33;;
20454;SDS011;10386;54.314;10.022;2023-01-01T16:55:30;16.80;;;3.03;;
20454;SDS011;10386;54.314;10.022;2023-01-01T16:57:56;10.77;;;2.50;;
20454;SDS011;10386;54.314;10.022;2023-01-01T17:00:43;15.53;;;3.33;;
20454;SDS011;10386;54.314;10.022;2023-01-01T17:03:10;17.37;;;2.90;;
20454;SDS011;10386;54.314;10.022;2023-01-01T17:05:37;11.67;;;3.10;;
20454;SDS011;10386;54.314;10.022;2023-01-01T17:08:09;15.67;;;2.93;;
20454;SDS011;10386;54.314;10.022;2023-01-01T17:10:36;21.03;;;3.37;;